Etusivu
METAR-TAF:

METAR-TAF

Lentoasemat :

South Wood County Airport (Alexander Field)

Wisconsin Rapids, Wisconsin, Yhdysvallat

Leveyspiiri: 44-21-33N, Pituuspiiri: 089-50-13W, korkeus merenpinnasta: 311 m

Tämänhetkinen sää

Tämä raportti tehtiin 32 minuuttia sitten, kello 03.25 UTC
Tuuli 11 kn pohjoisesta/koillisesta
Lämpötila 8°C
Kosteus 76%
Ilmanpaine 1013 hPa
Näkyvyys: 16.1 km
Hajonneita pilviä 1100 ft:n korkeudessa
Pilvistä 3100 ft:n korkeudessa
heikkoa sadetta

METAR: KISW 230325Z AUTO 03011KT 10SM -RA BKN011 OVC031 08/04 A2991 RMK AO2 P0000 T00780044 TSNO

Aika: 22:57 (03:57 UTC)


TAF: puuttuu

Säähavainnot ja -ennusteet yli 4000 lentoasemalta (METAR- ja TAF-raportit).

Käytössä olevat sääasemat on merkitty karttaan keltaisilla ja punaisilla pisteillä.

Aseta hiiri pisteen päälle nähdäksesi sääaseman nimen.

Klikkaa sitten nähdäksesi säähavainnot ja -ennusteet.

Kartan vaihtaminen: klikkaa mustalla rastilla varustettuja vihreitä pisteitä, niin voit zoomata sisään; viivalla varustettua vihreää pistettä, niin voit zoomata ulos tai vihreitä nuolia, niin pääset viereisille kartoille.


METAR-TAF: